Time;durP1;ratioP1;P1;durP2;ratioP2;P2;SDS_P1;SDS_P2;PMS_P1;PMS_P2;Temp;Humidity;BMP_temperature;BMP_pressure;BME280_temperature;BME280_humidity;BME280_pressure;Samples;Min_cycle;Max_cycle;Signal;HPM_P1;HPM_P2
2021/08/13 00:02:00;;;;;;;8.13;7.53;;;23.70;39.90;;;;;;5039524;28;20544;-62
2021/08/13 00:04:26;;;;;;;8.00;7.30;;;23.70;39.90;;;;;;5038479;28;20610;-62
2021/08/13 00:06:51;;;;;;;8.50;7.50;;;23.70;40.00;;;;;;5037735;28;20237;-62
2021/08/13 00:09:21;;;;;;;8.70;7.97;;;23.70;40.00;;;;;;5036279;28;20228;-63
2021/08/13 00:11:47;;;;;;;7.63;7.13;;;23.70;39.90;;;;;;5016858;28;20231;-62
2021/08/13 00:14:12;;;;;;;8.90;8.00;;;23.70;40.10;;;;;;5018372;28;20451;-62
2021/08/13 00:16:38;;;;;;;8.57;7.80;;;23.70;40.10;;;;;;5018346;28;20256;-62
2021/08/13 00:19:04;;;;;;;9.07;7.30;;;23.70;40.10;;;;;;5038035;28;20269;-60
2021/08/13 00:21:29;;;;;;;8.17;7.47;;;23.70;40.10;;;;;;5037706;28;20227;-62
2021/08/13 00:23:56;;;;;;;9.00;8.07;;;23.70;40.20;;;;;;5036996;28;20219;-62
2021/08/13 00:26:23;;;;;;;7.97;7.27;;;23.60;40.10;;;;;;5037738;28;20254;-62
2021/08/13 00:28:49;;;;;;;8.10;7.43;;;23.70;40.00;;;;;;5036841;28;20535;-62
2021/08/13 00:31:14;;;;;;;8.13;7.43;;;23.70;40.00;;;;;;5036894;28;21026;-62
2021/08/13 00:33:40;;;;;;;8.57;7.70;;;23.60;39.90;;;;;;5036183;28;21034;-62
2021/08/13 00:36:05;;;;;;;7.97;7.37;;;23.70;39.80;;;;;;5037550;28;20708;-61
2021/08/13 00:38:31;;;;;;;8.67;7.90;;;23.70;39.90;;;;;;5036303;28;20224;-61
2021/08/13 00:40:56;;;;;;;8.07;7.47;;;23.70;39.80;;;;;;5037317;28;20227;-62
2021/08/13 00:43:22;;;;;;;7.97;7.37;;;23.60;39.80;;;;;;5036156;28;20663;-62
2021/08/13 00:45:47;;;;;;;8.40;7.60;;;23.70;40.00;;;;;;5037015;28;20231;-62
2021/08/13 00:48:13;;;;;;;8.07;7.47;;;23.60;39.80;;;;;;5037648;28;20257;-63
2021/08/13 00:50:39;;;;;;;8.40;7.70;;;23.70;39.90;;;;;;5036401;28;20265;-62
2021/08/13 00:53:07;;;;;;;7.30;6.80;;;23.70;39.90;;;;;;5037304;28;20342;-62
2021/08/13 00:55:33;;;;;;;8.50;7.80;;;23.60;39.80;;;;;;5036286;28;20845;-62
2021/08/13 00:57:59;;;;;;;8.27;7.57;;;23.60;39.90;;;;;;5037176;28;20543;-62
2021/08/13 01:00:25;;;;;;;8.60;7.83;;;23.60;40.00;;;;;;5035997;28;20520;-62
2021/08/13 01:02:50;;;;;;;7.80;7.20;;;23.60;39.90;;;;;;5037512;28;20231;-62
2021/08/13 01:05:17;;;;;;;8.43;7.60;;;23.60;39.90;;;;;;5035044;28;20466;-62
2021/08/13 01:07:43;;;;;;;8.07;7.47;;;23.60;39.90;;;;;;5037205;28;20251;-62
2021/08/13 01:10:09;;;;;;;8.40;7.70;;;23.60;39.90;;;;;;5035882;28;20899;-61
2021/08/13 01:12:56;;;;;;;8.13;7.40;;;23.60;39.80;;;;;;5036907;28;20381;-61
2021/08/13 01:15:22;;;;;;;6.70;6.20;;;23.60;39.80;;;;;;5034228;28;20936;-62
2021/08/13 01:17:55;;;;;;;7.37;6.77;;;23.60;40.00;;;;;;5036843;28;20462;-61
2021/08/13 01:20:27;;;;;;;7.93;7.33;;;23.60;39.80;;;;;;5035574;28;20457;-62
2021/08/13 01:22:56;;;;;;;7.67;7.07;;;23.60;39.90;;;;;;5035589;28;20447;-61
2021/08/13 01:25:26;;;;;;;8.97;8.17;;;23.60;39.80;;;;;;5036489;28;20475;-61
2021/08/13 01:27:54;;;;;;;8.57;7.90;;;23.60;39.90;;;;;;5035558;28;20454;-61
2021/08/13 01:30:22;;;;;;;7.43;6.90;;;23.60;39.80;;;;;;5037070;28;20845;-61
2021/08/13 01:32:56;;;;;;;8.00;7.30;;;23.60;39.80;;;;;;5036335;28;20450;-62
2021/08/13 01:35:25;;;;;;;7.90;7.30;;;23.60;40.00;;;;;;5035525;28;20936;-62
2021/08/13 01:37:54;;;;;;;7.53;7.00;;;23.60;39.90;;;;;;5035187;28;20446;-62
2021/08/13 01:40:21;;;;;;;6.97;6.47;;;23.60;39.80;;;;;;5036126;28;20494;-63
2021/08/13 01:42:48;;;;;;;8.70;8.00;;;23.60;39.90;;;;;;5034992;28;20454;-61
2021/08/13 01:45:21;;;;;;;7.97;7.40;;;23.60;39.90;;;;;;5036193;28;20585;-61
2021/08/13 01:47:48;;;;;;;8.10;7.40;;;23.60;39.90;;;;;;5034619;28;20458;-61
2021/08/13 01:50:14;;;;;;;7.87;7.30;;;23.60;39.80;;;;;;5036196;28;21206;-61
2021/08/13 01:52:40;;;;;;;8.60;8.00;;;23.60;39.90;;;;;;5035255;28;20464;-62
2021/08/13 01:55:06;;;;;;;8.43;7.73;;;23.60;39.90;;;;;;5035726;28;20457;-61
2021/08/13 01:57:32;;;;;;;8.20;7.50;;;23.60;39.90;;;;;;5035876;28;20458;-62
2021/08/13 01:59:58;;;;;;;7.93;7.30;;;23.60;40.00;;;;;;5035545;28;20963;-62
2021/08/13 02:02:24;;;;;;;8.40;7.60;;;23.60;40.00;;;;;;5035787;28;20679;-65
2021/08/13 02:04:52;;;;;;;7.90;7.30;;;23.60;40.00;;;;;;5034796;28;21138;-62
2021/08/13 02:07:20;;;;;;;8.67;8.07;;;23.60;40.00;;;;;;5036118;28;20472;-62
2021/08/13 02:09:46;;;;;;;8.10;7.50;;;23.60;40.00;;;;;;5034307;28;20454;-63
2021/08/13 02:12:12;;;;;;;8.07;7.47;;;23.60;39.90;;;;;;5035996;28;20461;-62
2021/08/13 02:14:39;;;;;;;7.97;7.37;;;23.60;40.00;;;;;;5034713;28;20768;-61
2021/08/13 02:17:10;;;;;;;8.40;7.70;;;23.60;40.00;;;;;;5035601;28;20499;-61
2021/08/13 02:20:01;;;;;;;8.40;7.67;;;23.60;40.00;;;;;;5034608;28;20492;-62
2021/08/13 02:22:27;;;;;;;7.37;6.80;;;23.60;40.10;;;;;;5033631;28;20826;-60
2021/08/13 02:24:53;;;;;;;7.73;7.13;;;23.60;40.00;;;;;;5035435;28;20453;-61
2021/08/13 02:27:19;;;;;;;7.90;7.30;;;23.60;40.10;;;;;;5034185;28;20235;-61
2021/08/13 02:29:44;;;;;;;8.13;7.43;;;23.60;40.10;;;;;;5036014;28;20235;-61
2021/08/13 02:32:13;;;;;;;8.20;7.60;;;23.60;40.10;;;;;;5033879;28;20919;-61
2021/08/13 02:34:39;;;;;;;9.50;7.80;;;23.60;40.20;;;;;;5035344;28;20960;-62
2021/08/13 02:37:30;;;;;;;7.53;6.93;;;23.60;40.20;;;;;;5034500;28;20584;-62
2021/08/13 02:40:08;;;;;;;7.83;6.80;;;23.50;40.10;;;;;;5035143;28;20458;-62
2021/08/13 02:42:59;;;;;;;8.07;7.30;;;23.60;40.10;;;;;;5033077;28;20442;-62
2021/08/13 02:45:25;;;;;;;7.87;7.17;;;23.60;40.20;;;;;;5033927;28;20465;-62
2021/08/13 02:47:57;;;;;;;8.73;8.03;;;23.50;40.10;;;;;;5034763;28;20524;-62
2021/08/13 02:50:26;;;;;;;9.60;7.80;;;23.50;40.10;;;;;;5034329;28;20512;-62
2021/08/13 02:52:57;;;;;;;9.00;8.00;;;23.50;40.20;;;;;;5035074;28;20445;-63
2021/08/13 02:55:44;;;;;;;7.50;7.00;;;23.50;40.10;;;;;;5033404;28;20512;-61
2021/08/13 02:58:13;;;;;;;8.03;7.43;;;23.60;40.20;;;;;;5034111;28;22635;-62
2021/08/13 03:00:41;;;;;;;7.33;6.73;;;23.60;40.40;;;;;;5034951;28;20466;-60
2021/08/13 03:03:09;;;;;;;8.77;7.90;;;23.60;40.30;;;;;;5033494;28;21134;-61
2021/08/13 03:05:37;;;;;;;8.43;7.77;;;23.50;40.20;;;;;;5035101;28;20500;-61
2021/08/13 03:08:02;;;;;;;7.90;7.30;;;23.60;40.20;;;;;;5034021;28;20460;-63
2021/08/13 03:10:29;;;;;;;7.90;7.30;;;23.60;40.20;;;;;;5035071;28;20914;-61
2021/08/13 03:12:56;;;;;;;8.50;7.80;;;23.60;40.30;;;;;;5033892;28;20627;-61
2021/08/13 03:15:22;;;;;;;8.23;7.60;;;23.60;40.30;;;;;;5035021;28;20533;-62
2021/08/13 03:17:48;;;;;;;7.20;6.60;;;23.50;40.20;;;;;;5032783;28;20636;-62
2021/08/13 03:20:14;;;;;;;8.83;8.03;;;23.60;40.30;;;;;;5034888;28;20230;-62
2021/08/13 03:22:40;;;;;;;8.20;7.60;;;23.60;40.40;;;;;;5033570;28;20446;-63
2021/08/13 03:25:06;;;;;;;7.07;6.57;;;23.60;40.40;;;;;;5034633;28;20230;-62
2021/08/13 03:27:32;;;;;;;7.97;7.30;;;23.60;40.30;;;;;;5033615;28;20525;-62
2021/08/13 03:29:58;;;;;;;7.93;7.33;;;23.60;40.20;;;;;;5035026;28;20529;-62
2021/08/13 03:32:24;;;;;;;7.83;7.23;;;23.60;40.30;;;;;;5034440;28;20238;-62
2021/08/13 03:34:50;;;;;;;8.47;7.87;;;23.60;40.30;;;;;;5033609;28;20597;-62
2021/08/13 03:37:16;;;;;;;7.80;7.30;;;23.60;40.30;;;;;;5034754;28;20546;-61
2021/08/13 03:39:42;;;;;;;7.33;6.70;;;23.60;40.30;;;;;;5033393;28;20235;-61
2021/08/13 03:42:07;;;;;;;8.17;7.57;;;23.60;40.30;;;;;;5035171;28;20231;-61
2021/08/13 03:44:33;;;;;;;7.30;6.80;;;23.60;40.40;;;;;;5033296;28;20319;-61
2021/08/13 03:46:58;;;;;;;8.37;7.77;;;23.60;40.40;;;;;;5035471;28;20235;-61
2021/08/13 03:49:24;;;;;;;8.37;7.57;;;23.60;40.40;;;;;;5034159;28;20219;-61
2021/08/13 03:51:49;;;;;;;8.50;7.80;;;23.60;40.40;;;;;;5034414;28;20219;-61
2021/08/13 03:54:15;;;;;;;8.20;7.60;;;23.60;40.40;;;;;;5034301;28;20564;-62
2021/08/13 03:56:40;;;;;;;9.30;8.50;;;23.60;40.40;;;;;;5033184;28;20270;-62
2021/08/13 03:59:06;;;;;;;7.37;6.67;;;23.60;40.30;;;;;;5034471;28;20667;-62
2021/08/13 04:01:31;;;;;;;8.43;7.73;;;23.60;40.30;;;;;;5032880;28;20224;-62
2021/08/13 04:03:59;;;;;;;7.70;7.13;;;23.60;40.30;;;;;;5034773;28;20234;-62
2021/08/13 04:06:25;;;;;;;7.73;7.13;;;23.60;40.30;;;;;;5034607;28;20230;-62
2021/08/13 04:08:51;;;;;;;9.47;8.70;;;23.60;40.40;;;;;;5038373;28;20514;-62
2021/08/13 04:11:16;;;;;;;7.83;7.23;;;23.60;40.40;;;;;;5037292;28;20219;-62
2021/08/13 04:13:42;;;;;;;8.70;8.07;;;23.60;40.30;;;;;;5038001;28;20247;-62
2021/08/13 04:16:07;;;;;;;8.23;7.63;;;23.60;40.40;;;;;;5036270;28;20231;-62
2021/08/13 04:18:33;;;;;;;9.03;8.30;;;23.60;40.40;;;;;;5037645;28;21123;-62
2021/08/13 04:20:58;;;;;;;9.03;8.37;;;23.60;40.40;;;;;;5037813;28;20323;-63
2021/08/13 04:23:24;;;;;;;8.40;7.70;;;23.60;40.40;;;;;;5036325;28;20674;-62
2021/08/13 04:25:49;;;;;;;9.27;8.40;;;23.60;40.50;;;;;;5037828;28;20232;-62
2021/08/13 04:28:15;;;;;;;8.27;7.57;;;23.60;40.60;;;;;;5036405;28;20227;-62
2021/08/13 04:30:40;;;;;;;8.77;7.87;;;23.60;40.60;;;;;;5038100;28;20232;-62
2021/08/13 04:33:08;;;;;;;8.20;7.60;;;23.60;40.60;;;;;;5036193;28;20593;-62
2021/08/13 04:35:34;;;;;;;9.17;8.37;;;23.60;40.60;;;;;;5038198;28;20228;-62
2021/08/13 04:37:59;;;;;;;9.83;7.97;;;23.60;40.60;;;;;;5036263;28;20455;-62
2021/08/13 04:40:25;;;;;;;9.10;8.20;;;23.60;40.70;;;;;;5038024;28;20297;-61
2021/08/13 04:42:50;;;;;;;9.40;8.50;;;23.50;40.60;;;;;;5036413;28;20243;-62
2021/08/13 04:45:16;;;;;;;8.50;7.80;;;23.60;40.80;;;;;;5027906;28;20303;-62
2021/08/13 04:47:41;;;;;;;9.07;8.33;;;23.60;40.70;;;;;;4999411;28;20298;-62
2021/08/13 04:50:07;;;;;;;8.20;7.50;;;23.60;40.70;;;;;;4997037;28;20700;-62
2021/08/13 04:52:44;;;;;;;7.97;7.27;;;23.50;40.70;;;;;;4997220;28;20225;-63
2021/08/13 04:55:10;;;;;;;9.53;8.67;;;23.50;40.60;;;;;;4997385;28;20906;-63
2021/08/13 04:57:36;;;;;;;11.20;8.90;;;23.50;40.70;;;;;;4997194;28;20487;-63
2021/08/13 05:00:02;;;;;;;9.87;8.90;;;23.50;40.70;;;;;;4998629;28;20844;-63
2021/08/13 05:02:29;;;;;;;8.70;8.00;;;23.50;40.80;;;;;;4998607;28;20625;-62
2021/08/13 05:04:59;;;;;;;10.07;9.07;;;23.50;40.90;;;;;;4997409;28;20448;-63
2021/08/13 05:07:24;;;;;;;9.63;8.77;;;23.60;41.10;;;;;;4998489;28;20799;-63
2021/08/13 05:09:50;;;;;;;9.50;8.60;;;23.60;41.10;;;;;;4998115;28;20452;-63
2021/08/13 05:12:15;;;;;;;10.30;9.40;;;23.60;41.10;;;;;;4997648;28;20232;-62
2021/08/13 05:14:41;;;;;;;9.10;8.40;;;23.50;41.00;;;;;;4998328;28;20236;-62
2021/08/13 05:17:06;;;;;;;10.50;9.70;;;23.50;41.00;;;;;;5008919;28;20569;-62
2021/08/13 05:19:32;;;;;;;10.73;9.73;;;23.50;41.10;;;;;;5036874;28;20227;-64
2021/08/13 05:21:57;;;;;;;9.77;8.87;;;23.50;41.00;;;;;;5037947;28;20609;-62
2021/08/13 05:24:23;;;;;;;9.17;8.37;;;23.50;40.70;;;;;;5037522;28;20628;-62
2021/08/13 05:26:48;;;;;;;9.97;9.20;;;23.50;40.80;;;;;;5036253;28;20251;-62
2021/08/13 05:29:14;;;;;;;13.23;9.87;;;23.50;40.90;;;;;;5037790;28;20231;-63
2021/08/13 05:31:39;;;;;;;12.80;8.27;;;23.60;40.80;;;;;;5038670;28;20759;-65
2021/08/13 05:34:05;;;;;;;8.67;8.07;;;23.50;40.70;;;;;;5016145;28;20220;-65
2021/08/13 05:36:30;;;;;;;10.47;9.33;;;23.50;41.20;;;;;;5016570;28;20228;-66
2021/08/13 05:38:56;;;;;;;10.43;9.50;;;23.50;41.50;;;;;;5016401;28;20282;-65
2021/08/13 05:41:21;;;;;;;12.53;10.07;;;23.50;41.60;;;;;;5018730;28;20697;-63
2021/08/13 05:43:47;;;;;;;9.80;8.90;;;23.50;41.70;;;;;;5019309;28;20220;-63
2021/08/13 05:46:14;;;;;;;10.53;9.63;;;23.50;42.20;;;;;;5017816;28;20231;-65
2021/08/13 05:48:39;;;;;;;10.07;9.13;;;23.50;41.50;;;;;;5021058;28;20224;-64
2021/08/13 05:51:05;;;;;;;11.10;10.10;;;23.50;41.50;;;;;;5018967;28;20455;-64
2021/08/13 05:53:30;;;;;;;10.07;9.30;;;23.50;41.70;;;;;;5016150;28;20228;-64
2021/08/13 05:55:56;;;;;;;11.50;10.47;;;23.50;41.70;;;;;;5018317;28;20223;-64
2021/08/13 05:58:21;;;;;;;11.40;10.50;;;23.50;41.90;;;;;;5018353;28;21105;-64
2021/08/13 06:00:47;;;;;;;11.50;10.30;;;23.60;41.70;;;;;;5018610;28;20233;-68
2021/08/13 06:03:12;;;;;;;11.20;10.30;;;23.60;41.90;;;;;;5017960;28;20587;-66
2021/08/13 06:05:38;;;;;;;11.37;9.50;;;23.50;41.70;;;;;;5018418;28;20228;-68
2021/08/13 06:08:04;;;;;;;10.47;9.50;;;23.60;41.70;;;;;;5019239;28;21037;-66
2021/08/13 06:10:30;;;;;;;11.00;10.00;;;23.60;41.90;;;;;;5018265;28;20294;-65
2021/08/13 06:12:55;;;;;;;10.87;9.80;;;23.60;42.80;;;;;;5018766;28;20459;-63
2021/08/13 06:15:21;;;;;;;11.43;10.43;;;23.60;42.20;;;;;;5018083;28;20232;-62
2021/08/13 06:17:47;;;;;;;11.03;9.93;;;23.60;42.10;;;;;;5029217;28;20254;-63
2021/08/13 06:20:16;;;;;;;11.80;10.60;;;23.50;41.90;;;;;;5038206;28;20747;-63
2021/08/13 06:22:42;;;;;;;10.67;9.50;;;23.60;42.30;;;;;;5038112;28;20449;-63
2021/08/13 06:25:08;;;;;;;11.67;10.77;;;23.60;42.20;;;;;;5037923;28;20441;-64
2021/08/13 06:27:34;;;;;;;10.07;9.37;;;23.60;42.50;;;;;;5037876;28;20353;-64
2021/08/13 06:30:00;;;;;;;11.27;10.27;;;23.60;42.70;;;;;;5036864;28;20453;-64
2021/08/13 06:32:25;;;;;;;11.80;10.70;;;23.60;42.60;;;;;;5038095;28;20452;-63
2021/08/13 06:34:51;;;;;;;11.20;10.30;;;23.60;42.80;;;;;;5037748;28;20353;-64
2021/08/13 06:37:16;;;;;;;10.30;9.50;;;23.60;42.60;;;;;;5037529;28;21002;-64
2021/08/13 06:39:42;;;;;;;11.10;10.27;;;23.60;42.70;;;;;;5038027;28;20223;-63
2021/08/13 06:42:08;;;;;;;11.63;10.43;;;23.60;42.10;;;;;;5038291;28;20213;-64
2021/08/13 06:44:33;;;;;;;12.03;10.63;;;23.60;42.40;;;;;;5037290;28;20768;-64
2021/08/13 06:46:59;;;;;;;11.57;10.57;;;23.60;42.20;;;;;;5037638;28;20673;-63
2021/08/13 06:49:24;;;;;;;12.10;10.57;;;23.60;42.20;;;;;;5037953;28;20212;-64
2021/08/13 06:51:50;;;;;;;14.93;11.90;;;23.70;42.50;;;;;;5037545;28;20212;-64
2021/08/13 06:54:15;;;;;;;12.00;11.00;;;23.70;42.80;;;;;;5037840;28;20582;-62
2021/08/13 06:56:41;;;;;;;11.90;10.80;;;23.70;42.80;;;;;;5037204;28;20353;-67
2021/08/13 06:59:07;;;;;;;12.53;10.47;;;23.70;43.00;;;;;;5037246;28;20588;-64
2021/08/13 07:01:33;;;;;;;11.23;10.17;;;23.70;42.90;;;;;;5037573;28;20235;-64
2021/08/13 07:03:59;;;;;;;10.70;9.70;;;23.70;42.70;;;;;;5037711;28;20442;-64
2021/08/13 07:06:24;;;;;;;11.63;10.10;;;23.70;42.50;;;;;;5037252;28;20690;-64
2021/08/13 07:08:50;;;;;;;12.37;11.27;;;23.70;42.40;;;;;;5037420;28;20306;-69
2021/08/13 07:11:15;;;;;;;11.50;10.60;;;23.70;42.40;;;;;;5034570;28;20235;-72
2021/08/13 07:13:41;;;;;;;10.70;9.83;;;23.70;42.50;;;;;;5024308;28;20576;-66
2021/08/13 07:16:06;;;;;;;11.20;10.20;;;23.80;42.50;;;;;;5019994;28;20255;-66
2021/08/13 07:18:34;;;;;;;11.27;10.27;;;23.80;42.40;;;;;;5024039;28;20247;-68
2021/08/13 07:21:00;;;;;;;11.00;10.00;;;23.80;42.30;;;;;;5035891;28;20909;-68
2021/08/13 07:23:25;;;;;;;11.87;10.87;;;23.80;42.20;;;;;;5036399;28;20450;-66
2021/08/13 07:25:51;;;;;;;11.80;10.80;;;23.80;42.30;;;;;;5036183;28;20990;-65
2021/08/13 07:28:16;;;;;;;11.13;10.27;;;23.80;42.30;;;;;;5037342;28;20257;-66
2021/08/13 07:30:42;;;;;;;10.70;9.63;;;23.80;42.30;;;;;;5037006;28;20250;-69
2021/08/13 07:33:08;;;;;;;11.53;10.43;;;23.80;42.20;;;;;;5036367;28;20234;-67
2021/08/13 07:35:33;;;;;;;11.57;9.97;;;23.80;42.10;;;;;;5037784;28;20825;-69
2021/08/13 07:37:59;;;;;;;11.80;10.70;;;23.80;42.00;;;;;;5035883;28;20234;-70
2021/08/13 07:40:24;;;;;;;11.60;10.60;;;23.80;42.10;;;;;;5037216;28;20231;-64
2021/08/13 07:42:50;;;;;;;10.47;9.57;;;23.90;42.10;;;;;;5040294;28;20300;-67
2021/08/13 07:45:16;;;;;;;12.57;11.37;;;23.90;42.00;;;;;;5040788;28;20377;-70
2021/08/13 07:47:42;;;;;;;11.27;10.37;;;23.90;42.00;;;;;;5040325;28;20543;-68
2021/08/13 07:50:08;;;;;;;11.20;10.10;;;23.90;42.00;;;;;;5039482;28;21950;-67
2021/08/13 07:52:34;;;;;;;11.30;10.20;;;23.90;42.00;;;;;;5040037;28;20219;-67
2021/08/13 07:54:59;;;;;;;12.83;11.60;;;23.90;42.00;;;;;;5039651;28;20533;-68
2021/08/13 07:57:25;;;;;;;12.57;11.40;;;23.90;41.90;;;;;;5040022;28;20779;-65
2021/08/13 07:59:51;;;;;;;13.30;11.90;;;23.90;41.90;;;;;;5040807;28;20674;-67
2021/08/13 08:02:16;;;;;;;12.13;11.10;;;24.00;42.00;;;;;;5040135;28;20223;-65
2021/08/13 08:04:42;;;;;;;11.00;9.90;;;24.00;42.00;;;;;;5039522;28;20219;-63
2021/08/13 08:07:08;;;;;;;12.13;11.03;;;24.00;41.90;;;;;;5038703;28;20231;-64
2021/08/13 08:09:33;;;;;;;11.83;10.77;;;24.00;42.00;;;;;;5038051;28;20223;-63
2021/08/13 08:11:59;;;;;;;10.67;9.60;;;24.00;41.90;;;;;;5039957;28;20228;-63
2021/08/13 08:14:24;;;;;;;11.47;10.53;;;24.00;41.90;;;;;;5038129;28;20294;-65
2021/08/13 08:16:50;;;;;;;11.70;10.50;;;24.00;41.90;;;;;;5040327;28;20224;-63
2021/08/13 08:19:15;;;;;;;12.20;11.17;;;24.00;41.90;;;;;;5039499;28;20679;-68
2021/08/13 08:21:43;;;;;;;11.70;10.80;;;24.10;42.00;;;;;;5047773;28;20698;-68
2021/08/13 08:24:10;;;;;;;11.27;10.37;;;24.10;41.90;;;;;;5041829;28;20309;-70
2021/08/13 08:26:36;;;;;;;11.43;10.30;;;24.10;42.00;;;;;;5038928;28;20964;-66
2021/08/13 08:29:02;;;;;;;12.47;11.37;;;24.10;42.00;;;;;;5039680;28;20531;-65
2021/08/13 08:31:27;;;;;;;10.37;9.57;;;24.10;42.00;;;;;;5040007;28;20300;-64
2021/08/13 08:33:53;;;;;;;13.40;12.20;;;24.10;42.00;;;;;;5038243;28;20223;-63
2021/08/13 08:36:18;;;;;;;11.27;10.27;;;24.10;42.00;;;;;;5036416;28;20239;-64
2021/08/13 08:38:44;;;;;;;10.20;9.20;;;24.10;42.00;;;;;;5038320;28;20228;-64
2021/08/13 08:41:09;;;;;;;10.97;10.13;;;24.10;42.00;;;;;;5039080;28;20568;-63
2021/08/13 08:43:35;;;;;;;11.00;10.10;;;24.10;42.00;;;;;;5039288;28;20235;-65
2021/08/13 08:46:02;;;;;;;10.93;9.90;;;24.10;42.00;;;;;;5039709;28;20235;-65
2021/08/13 08:48:31;;;;;;;12.13;11.13;;;24.10;42.00;;;;;;5022697;28;20455;-62
2021/08/13 08:50:58;;;;;;;11.43;10.50;;;24.20;42.00;;;;;;5017866;28;20451;-64
2021/08/13 08:53:24;;;;;;;10.10;9.30;;;24.20;42.00;;;;;;5018242;28;20451;-65
2021/08/13 08:55:51;;;;;;;10.23;9.50;;;24.20;42.00;;;;;;5019097;28;21305;-64
2021/08/13 08:58:21;;;;;;;10.90;10.00;;;24.20;42.00;;;;;;5018635;28;20538;-63
2021/08/13 09:00:47;;;;;;;11.30;10.20;;;24.20;42.00;;;;;;5019792;28;20550;-62
2021/08/13 09:03:15;;;;;;;11.50;10.57;;;24.20;42.00;;;;;;5019391;28;20475;-67
2021/08/13 09:05:41;;;;;;;11.47;10.57;;;24.20;41.90;;;;;;5018543;28;20455;-68
2021/08/13 09:08:07;;;;;;;11.10;10.10;;;24.20;42.00;;;;;;5018529;28;20447;-63
2021/08/13 09:10:33;;;;;;;11.30;10.33;;;24.20;42.00;;;;;;5019230;28;20647;-63
2021/08/13 09:13:06;;;;;;;11.10;9.93;;;24.20;42.10;;;;;;5019041;28;20447;-64
2021/08/13 09:15:38;;;;;;;10.80;9.80;;;24.20;42.10;;;;;;5018944;28;21237;-63
2021/08/13 09:18:16;;;;;;;10.57;9.67;;;24.20;42.00;;;;;;5031725;28;20601;-65
2021/08/13 09:20:48;;;;;;;11.33;10.43;;;24.20;42.00;;;;;;5038213;28;20464;-64
2021/08/13 09:23:38;;;;;;;11.90;10.60;;;24.30;42.20;;;;;;5038776;28;20503;-63
2021/08/13 09:26:07;;;;;;;11.23;10.33;;;24.30;42.20;;;;;;5038637;28;20447;-64
2021/08/13 09:28:45;;;;;;;10.87;9.97;;;24.30;42.10;;;;;;5037949;28;21163;-61
2021/08/13 09:31:18;;;;;;;11.13;10.20;;;24.30;42.10;;;;;;5037582;28;20442;-62
2021/08/13 09:33:47;;;;;;;11.43;10.30;;;24.30;42.10;;;;;;5037914;28;20504;-64
2021/08/13 09:36:13;;;;;;;11.63;10.73;;;24.30;42.10;;;;;;5038773;28;20856;-60
2021/08/13 09:38:39;;;;;;;10.30;9.57;;;24.30;42.10;;;;;;5039029;28;20457;-63
2021/08/13 09:41:07;;;;;;;10.37;9.47;;;24.30;42.10;;;;;;5037642;28;20263;-60
2021/08/13 09:43:32;;;;;;;10.67;9.87;;;24.40;42.20;;;;;;5031343;28;20278;-61
2021/08/13 09:46:08;;;;;;;11.13;10.20;;;24.30;42.10;;;;;;5032136;28;21147;-64
2021/08/13 09:48:34;;;;;;;13.50;9.63;;;24.40;42.30;;;;;;5038431;28;20215;-62
2021/08/13 09:50:59;;;;;;;10.30;9.30;;;24.40;42.40;;;;;;5038241;28;20971;-64
2021/08/13 09:53:25;;;;;;;10.40;9.63;;;24.40;42.40;;;;;;5037421;28;20216;-60
2021/08/13 09:55:50;;;;;;;10.07;9.20;;;24.40;42.50;;;;;;5036680;28;20334;-63
2021/08/13 09:58:25;;;;;;;10.20;9.30;;;24.40;42.40;;;;;;5037620;28;20238;-63
2021/08/13 10:00:51;;;;;;;11.47;10.27;;;24.40;42.40;;;;;;5038003;28;20223;-62
2021/08/13 10:03:17;;;;;;;10.47;9.53;;;24.40;42.30;;;;;;5038020;28;20545;-63
2021/08/13 10:05:43;;;;;;;11.13;10.23;;;24.50;42.40;;;;;;5037938;28;20537;-65
2021/08/13 10:08:08;;;;;;;10.77;9.77;;;24.40;42.30;;;;;;5037714;28;20235;-68
2021/08/13 10:10:42;;;;;;;11.03;10.13;;;24.50;42.30;;;;;;5035727;28;20953;-72
2021/08/13 10:13:10;;;;;;;10.13;9.30;;;24.50;42.30;;;;;;5037581;28;20690;-69
2021/08/13 10:15:38;;;;;;;10.90;10.10;;;24.50;42.30;;;;;;5037074;28;20538;-68
2021/08/13 10:18:06;;;;;;;10.47;9.63;;;24.50;42.20;;;;;;5043269;28;20504;-69
2021/08/13 10:20:37;;;;;;;10.53;9.63;;;24.50;42.20;;;;;;5041511;28;20516;-68
2021/08/13 10:23:03;;;;;;;10.10;9.30;;;24.50;42.30;;;;;;5024346;28;20451;-70
2021/08/13 10:25:29;;;;;;;9.80;9.10;;;24.50;42.30;;;;;;5017837;28;20452;-69
2021/08/13 10:27:55;;;;;;;10.13;9.33;;;24.50;42.40;;;;;;5035834;28;20541;-72
2021/08/13 10:30:23;;;;;;;10.23;9.33;;;24.50;42.40;;;;;;5037072;28;20276;-73
2021/08/13 10:32:51;;;;;;;10.73;10.03;;;24.50;42.40;;;;;;5037004;28;20446;-71
2021/08/13 10:35:18;;;;;;;9.53;8.83;;;24.50;42.30;;;;;;5037161;28;20517;-71
2021/08/13 10:37:44;;;;;;;10.73;9.70;;;24.50;42.40;;;;;;5036796;28;20454;-66
2021/08/13 10:40:12;;;;;;;10.63;9.73;;;24.60;42.50;;;;;;5037007;28;20470;-67
2021/08/13 10:42:42;;;;;;;10.63;9.63;;;24.60;42.50;;;;;;5036025;28;20449;-65
2021/08/13 10:45:11;;;;;;;11.60;10.60;;;24.60;42.50;;;;;;5036941;28;20766;-64
2021/08/13 10:47:43;;;;;;;9.40;8.70;;;24.60;42.50;;;;;;5037087;28;20450;-63
2021/08/13 10:50:12;;;;;;;9.63;8.90;;;24.60;42.60;;;;;;5037314;28;20476;-65
2021/08/13 10:52:39;;;;;;;10.33;9.43;;;24.60;42.60;;;;;;5036494;28;20446;-65
2021/08/13 10:55:07;;;;;;;9.87;9.17;;;24.60;42.60;;;;;;5035642;28;20438;-66
2021/08/13 10:57:48;;;;;;;10.83;9.93;;;24.60;42.60;;;;;;5036435;28;20936;-66
2021/08/13 11:00:14;;;;;;;10.53;9.73;;;24.60;42.70;;;;;;5037552;28;21044;-61
2021/08/13 11:02:39;;;;;;;10.13;9.33;;;24.60;42.60;;;;;;5037121;28;20534;-64
2021/08/13 11:05:05;;;;;;;10.67;9.87;;;24.60;43.30;;;;;;5036152;28;21024;-64
2021/08/13 11:07:58;;;;;;;12.20;10.00;;;24.60;42.60;;;;;;5035591;28;20238;-65
2021/08/13 11:10:38;;;;;;;10.50;9.50;;;24.60;42.70;;;;;;5036689;28;20549;-65
2021/08/13 11:13:10;;;;;;;10.53;9.63;;;24.70;42.80;;;;;;5035951;28;20539;-64
2021/08/13 11:15:36;;;;;;;10.00;9.20;;;24.70;42.90;;;;;;5035232;28;20446;-65
2021/08/13 11:18:21;;;;;;;9.93;9.13;;;24.70;43.00;;;;;;5036601;28;21392;-66
2021/08/13 11:20:48;;;;;;;10.20;9.40;;;24.70;42.90;;;;;;5037169;28;20227;-63
2021/08/13 11:23:14;;;;;;;11.03;10.23;;;24.70;42.90;;;;;;5036690;28;20611;-64
2021/08/13 11:25:50;;;;;;;9.27;8.53;;;24.70;42.90;;;;;;5036085;28;21002;-63
2021/08/13 11:28:27;;;;;;;10.93;9.57;;;24.70;42.90;;;;;;5035409;28;20255;-63
2021/08/13 11:30:56;;;;;;;11.83;10.47;;;24.70;42.90;;;;;;5036567;28;20450;-62
2021/08/13 11:33:33;;;;;;;11.07;10.07;;;24.70;42.90;;;;;;5036764;28;20479;-65
2021/08/13 11:36:00;;;;;;;11.63;10.60;;;24.70;42.90;;;;;;5034933;28;20492;-63
2021/08/13 11:38:44;;;;;;;10.93;10.07;;;24.70;42.90;;;;;;5036780;28;20457;-66
2021/08/13 11:41:22;;;;;;;10.60;9.70;;;24.80;43.00;;;;;;5036636;28;20450;-64
2021/08/13 11:43:52;;;;;;;10.80;10.00;;;24.70;42.90;;;;;;5035630;28;20446;-62
2021/08/13 11:46:42;;;;;;;10.70;9.80;;;24.80;43.00;;;;;;5035635;28;20458;-62
2021/08/13 11:49:23;;;;;;;10.90;10.00;;;24.70;42.90;;;;;;5036688;28;20838;-62
2021/08/13 11:51:50;;;;;;;10.73;9.93;;;24.70;42.80;;;;;;5035608;28;20450;-62
2021/08/13 11:54:29;;;;;;;10.67;9.80;;;24.80;42.90;;;;;;5035881;28;20450;-62
2021/08/13 11:57:18;;;;;;;10.43;9.50;;;24.80;42.90;;;;;;5032557;28;21096;-63
2021/08/13 11:59:45;;;;;;;10.30;9.40;;;24.80;43.10;;;;;;5015741;28;20471;-59
2021/08/13 12:02:13;;;;;;;11.30;10.50;;;24.80;43.10;;;;;;5033339;28;20435;-63
2021/08/13 12:04:38;;;;;;;10.93;9.90;;;24.80;43.10;;;;;;5036211;28;20442;-61
2021/08/13 12:07:09;;;;;;;10.70;9.90;;;24.80;43.00;;;;;;5036326;28;20442;-63
2021/08/13 12:09:39;;;;;;;9.87;9.13;;;24.80;43.00;;;;;;5037078;28;20597;-63
2021/08/13 12:12:09;;;;;;;10.73;10.03;;;24.80;43.00;;;;;;5036058;28;20473;-63
2021/08/13 12:14:37;;;;;;;10.63;9.73;;;24.80;43.00;;;;;;5035543;28;20442;-60
2021/08/13 12:17:03;;;;;;;11.30;10.20;;;24.80;42.90;;;;;;5035452;28;20523;-61
2021/08/13 12:19:29;;;;;;;10.90;9.97;;;24.80;43.00;;;;;;5036425;28;20474;-64
2021/08/13 12:22:03;;;;;;;12.80;10.60;;;24.80;42.90;;;;;;5037250;28;20912;-63
2021/08/13 12:24:40;;;;;;;11.00;10.10;;;24.80;42.90;;;;;;5037155;28;20446;-63
2021/08/13 12:27:08;;;;;;;11.50;10.70;;;24.80;43.00;;;;;;5037125;28;20557;-62
2021/08/13 12:29:36;;;;;;;11.20;10.27;;;24.80;43.10;;;;;;5040126;28;20448;-62
2021/08/13 12:32:04;;;;;;;11.03;9.90;;;24.80;43.10;;;;;;5039942;28;20438;-61
2021/08/13 12:34:31;;;;;;;11.60;10.60;;;24.80;43.30;;;;;;5039336;28;20868;-61
2021/08/13 12:37:04;;;;;;;10.43;9.63;;;24.80;43.30;;;;;;5039768;28;20460;-62
2021/08/13 12:39:32;;;;;;;11.73;10.80;;;24.80;43.40;;;;;;5039743;28;20514;-69
2021/08/13 12:41:58;;;;;;;11.87;10.67;;;24.80;43.40;;;;;;5040305;28;21012;-63